Time;durP1;ratioP1;P1;durP2;ratioP2;P2;SDS_P1;SDS_P2;PMS_P1;PMS_P2;Temp;Humidity;BMP_temperature;BMP_pressure;BME280_temperature;BME280_humidity;BME280_pressure;Samples;Min_cycle;Max_cycle;Signal;HPM_P1;HPM_P2
2023/12/07 00:00:08;;;;;;;17.80;15.68;;;-0.80;99.90;;;;;;4932277;29;20393;-82
2023/12/07 00:02:35;;;;;;;11.55;9.93;;;-0.90;99.90;;;;;;4930687;29;20211;-86
2023/12/07 00:05:03;;;;;;;15.23;10.52;;;-0.70;99.90;;;;;;4928673;29;20237;-85
2023/12/07 00:07:30;;;;;;;8.05;7.57;;;-0.80;99.90;;;;;;4921396;29;20280;-82
2023/12/07 00:09:58;;;;;;;11.27;10.40;;;-0.90;99.90;;;;;;4920901;29;20265;-83
2023/12/07 00:12:25;;;;;;;31.42;11.95;;;-1.00;99.90;;;;;;4923978;29;20233;-82
2023/12/07 00:14:53;;;;;;;11.75;10.35;;;-1.00;99.90;;;;;;4922565;29;20205;-83
2023/12/07 00:17:19;;;;;;;13.57;12.27;;;-1.00;99.90;;;;;;4920265;29;20502;-82
2023/12/07 00:19:47;;;;;;;19.90;10.40;;;-1.00;99.90;;;;;;4919619;29;20636;-84
2023/12/07 00:22:14;;;;;;;11.27;10.27;;;-1.00;99.90;;;;;;4931651;29;20205;-84
2023/12/07 00:24:41;;;;;;;16.10;8.38;;;-1.00;99.90;;;;;;4930748;29;20235;-84
2023/12/07 00:27:09;;;;;;;15.15;13.68;;;-0.90;99.90;;;;;;4928038;29;20279;-83
2023/12/07 00:29:37;;;;;;;9.07;7.93;;;-1.00;99.90;;;;;;4917899;29;20244;-85
2023/12/07 00:32:06;;;;;;;9.25;8.55;;;-1.00;99.90;;;;;;4917121;29;20220;-85
2023/12/07 00:34:33;;;;;;;17.33;13.20;;;-1.00;99.90;;;;;;4925190;29;20212;-86
2023/12/07 00:37:00;;;;;;;10.18;9.38;;;-1.10;99.90;;;;;;4924410;29;20236;-81
2023/12/07 00:39:27;;;;;;;9.50;8.60;;;-1.00;99.90;;;;;;4926408;29;20422;-79
2023/12/07 00:41:54;;;;;;;12.07;10.93;;;-1.00;99.90;;;;;;4932319;29;20547;-80
2023/12/07 00:44:21;;;;;;;13.05;11.65;;;-1.10;99.90;;;;;;4922807;29;20209;-83
2023/12/07 00:46:49;;;;;;;15.23;14.20;;;-1.10;99.90;;;;;;4924301;29;20263;-84
2023/12/07 00:49:16;;;;;;;12.15;10.82;;;-1.10;99.90;;;;;;4923194;29;20256;-86
2023/12/07 00:51:43;;;;;;;13.50;12.57;;;-1.10;99.90;;;;;;4928713;29;20252;-84
2023/12/07 00:54:10;;;;;;;13.43;12.20;;;-1.10;99.90;;;;;;4922886;29;20209;-82
2023/12/07 00:56:37;;;;;;;14.73;9.57;;;-1.10;99.90;;;;;;4919189;29;20208;-85
2023/12/07 00:59:04;;;;;;;8.68;8.05;;;-1.20;99.90;;;;;;4922991;29;20208;-86
2023/12/07 01:01:31;;;;;;;22.77;14.70;;;-1.20;99.90;;;;;;4920307;29;20222;-82
2023/12/07 01:03:58;;;;;;;16.77;15.05;;;-1.30;99.90;;;;;;4930117;29;20201;-87
2023/12/07 01:06:26;;;;;;;9.93;9.27;;;-1.20;99.90;;;;;;4926424;29;20210;-84
2023/12/07 01:08:53;;;;;;;14.05;12.85;;;-1.30;99.90;;;;;;4925784;29;20429;-86
2023/12/07 01:11:21;;;;;;;11.25;10.15;;;-1.20;99.90;;;;;;4924808;29;20206;-83
2023/12/07 01:13:48;;;;;;;15.75;9.70;;;-1.20;99.90;;;;;;4922861;29;20237;-83
2023/12/07 01:16:15;;;;;;;8.93;8.40;;;-1.20;99.90;;;;;;4930473;29;20520;-87
2023/12/07 01:18:42;;;;;;;7.97;7.28;;;-1.20;99.90;;;;;;4923589;29;20401;-85
2023/12/07 01:21:09;;;;;;;15.70;14.15;;;-1.30;99.90;;;;;;4932041;29;20224;-83
2023/12/07 01:23:36;;;;;;;11.05;10.13;;;-1.30;99.90;;;;;;4922628;29;20492;-85
2023/12/07 01:26:03;;;;;;;15.77;13.88;;;-1.30;99.90;;;;;;4923086;29;20225;-85
2023/12/07 01:28:31;;;;;;;6.35;5.95;;;-1.20;99.90;;;;;;4921114;29;20202;-86
2023/12/07 01:30:58;;;;;;;11.48;10.48;;;-1.30;99.90;;;;;;4930351;29;20197;-85
2023/12/07 01:33:25;;;;;;;10.20;8.93;;;-1.30;99.90;;;;;;4919204;29;20233;-87
2023/12/07 01:35:53;;;;;;;11.23;9.82;;;-1.30;99.90;;;;;;4933986;29;20482;-85
2023/12/07 01:38:20;;;;;;;11.95;11.10;;;-1.30;99.90;;;;;;4921648;29;20213;-86
2023/12/07 01:40:48;;;;;;;8.60;7.97;;;-1.20;99.90;;;;;;4929974;29;20205;-83
2023/12/07 01:43:15;;;;;;;7.90;7.40;;;-1.20;99.90;;;;;;4930378;29;20206;-89
2023/12/07 01:45:43;;;;;;;9.73;8.88;;;-1.30;99.90;;;;;;4918226;29;20221;-85
2023/12/07 01:48:10;;;;;;;10.10;7.70;;;-1.30;99.90;;;;;;4923220;29;20229;-83
2023/12/07 01:50:40;;;;;;;14.70;11.45;;;-1.30;99.90;;;;;;4912239;29;20533;-84
2023/12/07 01:53:09;;;;;;;16.67;14.30;;;-1.30;99.90;;;;;;4917256;29;20229;-83
2023/12/07 01:55:36;;;;;;;12.70;11.35;;;-1.20;99.90;;;;;;4923586;29;20237;-81
2023/12/07 01:58:05;;;;;;;9.20;8.57;;;-1.20;99.90;;;;;;4925026;29;20212;-85
2023/12/07 02:00:33;;;;;;;10.88;10.05;;;-1.20;99.90;;;;;;4922764;29;20201;-84
2023/12/07 02:03:05;;;;;;;9.65;8.93;;;-1.20;99.90;;;;;;4930580;29;20209;-84
2023/12/07 02:05:36;;;;;;;11.10;8.40;;;-1.20;99.90;;;;;;4915671;29;20201;-82
2023/12/07 02:08:04;;;;;;;16.60;12.88;;;-1.10;99.90;;;;;;4924452;29;20207;-85
2023/12/07 02:10:31;;;;;;;13.35;12.40;;;-1.10;99.90;;;;;;4921782;29;20216;-85
2023/12/07 02:12:58;;;;;;;11.48;10.68;;;-1.10;99.90;;;;;;4914585;29;20240;-84
2023/12/07 02:15:26;;;;;;;17.83;10.68;;;-1.10;99.90;;;;;;4922723;29;20213;-84
2023/12/07 02:18:15;;;;;;;7.28;6.85;;;-1.10;99.90;;;;;;4920503;29;20220;-83
2023/12/07 02:20:47;;;;;;;6.53;6.00;;;-1.10;99.90;;;;;;4915796;29;20228;-83
2023/12/07 02:23:17;;;;;;;18.77;16.85;;;-1.10;99.90;;;;;;4923675;29;20202;-84
2023/12/07 02:26:49;;;;;;;12.88;11.38;;;-1.10;99.90;;;;;;4912715;29;20201;-82
2023/12/07 02:29:16;;;;;;;10.38;9.38;;;-1.10;99.90;;;;;;4916706;29;20209;-82
2023/12/07 02:31:43;;;;;;;9.90;9.10;;;-1.10;99.90;;;;;;4928330;29;20215;-84
2023/12/07 02:34:10;;;;;;;20.52;12.98;;;-1.10;99.90;;;;;;4915384;29;20225;-84
2023/12/07 02:36:39;;;;;;;7.90;7.10;;;-1.10;99.90;;;;;;4923223;29;20252;-83
2023/12/07 02:39:09;;;;;;;9.45;8.35;;;-1.00;99.90;;;;;;4922603;29;20285;-80
2023/12/07 02:41:37;;;;;;;12.95;11.75;;;-1.00;99.90;;;;;;4921390;29;20240;-81
2023/12/07 02:44:05;;;;;;;10.80;9.68;;;-1.10;99.90;;;;;;4914183;29;20260;-82
2023/12/07 02:46:32;;;;;;;16.15;12.50;;;-1.10;99.90;;;;;;4921915;29;20272;-81
2023/12/07 02:49:00;;;;;;;7.53;7.00;;;-1.00;99.90;;;;;;4928292;29;20216;-81
2023/12/07 02:51:27;;;;;;;7.95;7.20;;;-1.00;99.90;;;;;;4912274;29;20201;-82
2023/12/07 02:53:53;;;;;;;13.82;11.32;;;-1.10;99.90;;;;;;4929873;29;20240;-81
2023/12/07 02:56:21;;;;;;;12.85;11.55;;;-1.00;99.90;;;;;;4931371;29;20225;-81
2023/12/07 02:58:48;;;;;;;10.98;9.85;;;-1.00;99.90;;;;;;4930703;29;20236;-82
2023/12/07 03:01:15;;;;;;;8.23;7.57;;;-0.90;99.90;;;;;;4918990;29;20236;-80
2023/12/07 03:03:42;;;;;;;8.90;8.35;;;-0.90;99.90;;;;;;4921068;29;20205;-80
2023/12/07 03:06:09;;;;;;;10.02;9.38;;;-0.90;99.90;;;;;;4924421;29;20220;-80
2023/12/07 03:08:36;;;;;;;16.10;12.02;;;-0.90;99.90;;;;;;4926736;29;20228;-81
2023/12/07 03:11:05;;;;;;;8.73;8.00;;;-0.90;99.90;;;;;;4917290;29;20272;-80
2023/12/07 03:13:32;;;;;;;13.02;9.45;;;-0.90;99.90;;;;;;4921009;29;20295;-80
2023/12/07 03:15:59;;;;;;;29.63;8.85;;;-0.90;99.90;;;;;;4926006;29;20433;-80
2023/12/07 03:18:26;;;;;;;6.13;5.35;;;-0.90;99.90;;;;;;4922568;29;20212;-79
2023/12/07 03:20:53;;;;;;;8.70;7.72;;;-0.90;99.90;;;;;;4919342;29;20409;-80
2023/12/07 03:23:20;;;;;;;18.13;10.82;;;-0.90;99.90;;;;;;4919250;29;20229;-80
2023/12/07 03:25:47;;;;;;;9.32;8.60;;;-0.90;99.90;;;;;;4919847;29;20394;-80
2023/12/07 03:28:14;;;;;;;11.02;9.60;;;-0.80;99.90;;;;;;4924915;29;20387;-79
2023/12/07 03:30:41;;;;;;;10.45;9.48;;;-0.80;99.90;;;;;;4926348;29;20213;-80
2023/12/07 03:33:08;;;;;;;11.93;7.03;;;-0.80;99.90;;;;;;4919734;29;20278;-79
2023/12/07 03:35:35;;;;;;;9.55;8.98;;;-0.80;99.90;;;;;;4915094;29;20206;-80
2023/12/07 03:38:03;;;;;;;11.82;8.77;;;-0.80;99.90;;;;;;4923560;29;20204;-79
2023/12/07 03:40:30;;;;;;;8.80;8.10;;;-0.80;99.90;;;;;;4918125;29;20268;-79
2023/12/07 03:42:57;;;;;;;9.68;8.95;;;-0.80;99.90;;;;;;4915877;29;20244;-81
2023/12/07 03:45:24;;;;;;;9.20;8.38;;;-0.80;99.90;;;;;;4921366;29;20283;-81
2023/12/07 03:47:51;;;;;;;10.60;9.80;;;-0.80;99.90;;;;;;4921194;29;20217;-81
2023/12/07 03:50:18;;;;;;;11.38;9.07;;;-0.80;99.90;;;;;;4927665;29;20397;-81
2023/12/07 03:52:45;;;;;;;6.28;5.78;;;-0.80;99.90;;;;;;4924916;29;20233;-82
2023/12/07 03:55:13;;;;;;;13.63;8.13;;;-0.80;99.90;;;;;;4891297;29;1071399;-80
2023/12/07 03:57:40;;;;;;;16.25;13.60;;;-0.80;99.90;;;;;;4927967;29;20205;-82
2023/12/07 04:00:11;;;;;;;11.07;9.98;;;-0.70;99.90;;;;;;4921931;29;20409;-80
2023/12/07 04:02:38;;;;;;;11.68;10.63;;;-0.70;99.90;;;;;;4932656;29;20209;-82
2023/12/07 04:05:05;;;;;;;11.02;9.77;;;-0.70;99.90;;;;;;4922826;29;20280;-82
2023/12/07 04:07:32;;;;;;;11.50;10.45;;;-0.80;99.90;;;;;;4923639;29;20257;-81
2023/12/07 04:09:59;;;;;;;7.65;6.97;;;-0.70;99.90;;;;;;4926176;29;20215;-81
2023/12/07 04:12:26;;;;;;;6.55;5.70;;;-0.70;99.90;;;;;;4921629;29;20273;-82
2023/12/07 04:14:54;;;;;;;12.38;11.38;;;-0.70;99.90;;;;;;4922155;29;20228;-82
2023/12/07 04:17:21;;;;;;;16.10;11.82;;;-0.50;99.90;;;;;;4921236;29;20537;-81
2023/12/07 04:19:48;;;;;;;10.90;9.73;;;-0.70;99.90;;;;;;4921541;29;20481;-82
2023/12/07 04:22:15;;;;;;;9.45;7.07;;;-0.80;99.90;;;;;;4916329;29;20685;-82
2023/12/07 04:24:42;;;;;;;18.80;9.93;;;-0.80;99.90;;;;;;4916106;29;20201;-81
2023/12/07 04:27:11;;;;;;;14.57;13.23;;;-0.70;99.90;;;;;;4919968;29;20257;-82
2023/12/07 04:29:38;;;;;;;14.40;12.05;;;-0.70;99.90;;;;;;4938483;29;20228;-80
2023/12/07 04:32:06;;;;;;;13.68;10.88;;;-0.70;99.90;;;;;;4929210;29;20202;-82
2023/12/07 04:34:34;;;;;;;8.05;7.60;;;-0.60;99.90;;;;;;4937094;29;20217;-82
2023/12/07 04:37:01;;;;;;;12.05;11.18;;;-0.60;99.90;;;;;;4925966;29;20238;-81
2023/12/07 04:39:28;;;;;;;10.63;9.82;;;-0.70;99.90;;;;;;4909151;29;20205;-82
2023/12/07 04:41:55;;;;;;;19.52;17.13;;;-0.50;99.90;;;;;;4918249;29;20506;-80
2023/12/07 04:44:25;;;;;;;10.95;10.00;;;-0.60;99.90;;;;;;4919051;29;20236;-82
2023/12/07 04:46:52;;;;;;;9.65;9.00;;;-0.70;99.90;;;;;;4917483;29;20206;-81
2023/12/07 04:49:19;;;;;;;17.85;14.95;;;-0.70;99.90;;;;;;4932989;29;20272;-81
2023/12/07 04:51:46;;;;;;;15.07;13.30;;;-0.70;99.90;;;;;;4923306;29;20212;-80
2023/12/07 04:54:16;;;;;;;10.50;9.68;;;-0.60;99.90;;;;;;4921396;29;20293;-80
2023/12/07 04:56:46;;;;;;;9.68;8.77;;;-0.60;99.90;;;;;;4919345;29;20199;-83
2023/12/07 04:59:13;;;;;;;12.73;11.50;;;-0.60;99.90;;;;;;4930307;29;20215;-82
2023/12/07 05:01:40;;;;;;;9.32;8.50;;;-0.60;99.90;;;;;;4929652;29;20202;-82
2023/12/07 05:04:07;;;;;;;12.43;11.27;;;-0.60;99.90;;;;;;4929723;29;20194;-84
2023/12/07 05:06:37;;;;;;;7.78;6.90;;;-0.50;99.90;;;;;;4933690;29;20221;-83
2023/12/07 05:09:04;;;;;;;11.77;9.35;;;-0.50;99.90;;;;;;4934761;29;20229;-83
2023/12/07 05:11:32;;;;;;;28.33;9.60;;;-0.50;99.90;;;;;;4935047;29;20201;-82
2023/12/07 05:13:59;;;;;;;10.82;10.02;;;-0.50;99.90;;;;;;4930741;29;20285;-85
2023/12/07 05:16:26;;;;;;;13.80;12.50;;;-0.50;99.90;;;;;;4933595;29;20194;-82
2023/12/07 05:18:53;;;;;;;12.70;11.25;;;-0.50;99.90;;;;;;4924385;29;20205;-80
2023/12/07 05:21:20;;;;;;;11.93;9.88;;;-0.50;99.90;;;;;;4919586;29;20193;-81
2023/12/07 05:23:48;;;;;;;8.65;8.02;;;-0.50;99.90;;;;;;4918466;29;20232;-82
2023/12/07 05:26:15;;;;;;;8.55;7.95;;;-0.50;99.90;;;;;;4919655;29;20201;-81
2023/12/07 05:28:43;;;;;;;10.93;10.38;;;-0.50;99.90;;;;;;4916565;29;20209;-79
2023/12/07 05:31:17;;;;;;;14.70;13.60;;;-0.50;99.90;;;;;;4920049;29;20219;-81
2023/12/07 05:33:44;;;;;;;15.38;11.50;;;-0.50;99.90;;;;;;4906016;29;20296;-80
2023/12/07 05:36:12;;;;;;;15.40;10.45;;;-0.50;99.90;;;;;;4917825;29;20444;-80
2023/12/07 05:38:39;;;;;;;9.82;9.02;;;-0.60;99.90;;;;;;4916639;29;20201;-80
2023/12/07 05:41:06;;;;;;;11.73;10.80;;;-0.50;99.90;;;;;;4918849;29;20397;-82
2023/12/07 05:43:33;;;;;;;14.50;9.98;;;-0.50;99.90;;;;;;4921582;29;20232;-79
2023/12/07 05:46:00;;;;;;;10.32;9.68;;;-0.50;99.90;;;;;;4923221;29;20252;-82
2023/12/07 05:48:28;;;;;;;9.23;8.48;;;-0.50;99.90;;;;;;4909682;29;20210;-80
2023/12/07 05:50:56;;;;;;;14.05;13.07;;;-0.50;99.90;;;;;;4928439;29;20204;-80
2023/12/07 05:53:24;;;;;;;14.25;12.85;;;-0.50;99.90;;;;;;4906598;29;20233;-81
2023/12/07 05:55:51;;;;;;;10.77;9.40;;;-0.50;99.90;;;;;;4910185;29;20450;-79
2023/12/07 05:58:18;;;;;;;12.30;10.32;;;-0.50;99.90;;;;;;4922208;29;20253;-80
2023/12/07 06:00:46;;;;;;;14.77;13.25;;;-0.50;99.90;;;;;;4913871;29;20217;-81
2023/12/07 06:03:15;;;;;;;9.30;6.82;;;-0.60;99.90;;;;;;4916965;29;20237;-81
2023/12/07 06:05:44;;;;;;;10.48;9.75;;;-0.50;99.90;;;;;;4915402;29;20391;-82
2023/12/07 06:08:12;;;;;;;12.00;11.13;;;-0.50;99.90;;;;;;4922569;29;20500;-81
2023/12/07 06:10:39;;;;;;;17.23;12.63;;;-0.50;99.90;;;;;;4913620;29;20577;-82
2023/12/07 06:13:07;;;;;;;22.88;14.02;;;-0.50;99.90;;;;;;4909222;29;20233;-81
2023/12/07 06:15:34;;;;;;;17.10;11.40;;;-0.50;99.90;;;;;;4914785;29;20241;-80
2023/12/07 06:18:01;;;;;;;10.07;9.10;;;-0.60;99.90;;;;;;4913674;29;20202;-81
2023/12/07 06:20:28;;;;;;;14.65;13.50;;;-0.50;99.90;;;;;;4915877;29;20243;-80
2023/12/07 06:22:55;;;;;;;17.17;11.60;;;-0.50;99.90;;;;;;4916398;29;20253;-79
2023/12/07 06:25:23;;;;;;;17.70;15.77;;;-0.50;99.90;;;;;;4913232;29;20273;-80
2023/12/07 06:27:50;;;;;;;10.15;9.32;;;-0.40;99.90;;;;;;4920971;29;20271;-81
2023/12/07 06:30:17;;;;;;;26.10;15.23;;;-0.50;99.90;;;;;;4912839;29;20268;-82
2023/12/07 06:32:44;;;;;;;18.05;16.25;;;-0.40;99.90;;;;;;4922200;29;20201;-82
2023/12/07 06:35:15;;;;;;;20.52;15.60;;;-0.40;99.90;;;;;;4925092;29;20269;-81
2023/12/07 06:37:42;;;;;;;10.00;9.02;;;-0.40;99.90;;;;;;4916799;29;20264;-81
2023/12/07 06:40:10;;;;;;;21.08;13.05;;;-0.30;99.90;;;;;;4915248;29;20383;-81
2023/12/07 06:42:37;;;;;;;15.23;12.85;;;-0.40;99.90;;;;;;4911800;29;20489;-82
2023/12/07 06:45:10;;;;;;;15.10;8.80;;;-0.30;99.90;;;;;;4912864;29;20205;-82
2023/12/07 06:47:38;;;;;;;7.43;6.78;;;-0.30;99.90;;;;;;4920910;29;20216;-82
2023/12/07 06:50:12;;;;;;;14.00;12.65;;;-0.30;99.90;;;;;;4914634;29;20502;-81
2023/12/07 06:52:40;;;;;;;23.30;14.52;;;-0.30;99.90;;;;;;4918047;29;20430;-81
2023/12/07 06:55:10;;;;;;;22.67;12.40;;;-0.30;99.90;;;;;;4917446;29;20233;-81
2023/12/07 06:57:37;;;;;;;9.80;9.13;;;-0.30;99.90;;;;;;4912666;29;20197;-81
2023/12/07 07:00:10;;;;;;;16.15;13.65;;;-0.30;99.90;;;;;;4920783;29;20489;-81
2023/12/07 07:02:40;;;;;;;23.83;8.00;;;-0.40;99.90;;;;;;4915393;29;20410;-83
2023/12/07 07:05:09;;;;;;;11.13;9.65;;;-0.30;99.90;;;;;;4911794;29;20205;-81
2023/12/07 07:07:36;;;;;;;21.05;15.38;;;-0.30;99.90;;;;;;4917994;29;20397;-81
2023/12/07 07:10:03;;;;;;;16.25;14.65;;;-0.20;99.90;;;;;;4935278;29;20490;-81
2023/12/07 07:12:30;;;;;;;10.90;10.10;;;-0.20;99.90;;;;;;4915625;29;20436;-82
2023/12/07 07:14:58;;;;;;;11.07;7.53;;;-0.30;99.90;;;;;;4923460;29;20224;-82
2023/12/07 07:17:25;;;;;;;11.43;10.38;;;-0.20;99.90;;;;;;4926520;29;20228;-82
2023/12/07 07:19:54;;;;;;;12.50;11.30;;;-0.20;99.90;;;;;;4924421;29;20228;-82
2023/12/07 07:22:21;;;;;;;11.88;10.75;;;-0.20;99.90;;;;;;4928112;29;20197;-85
2023/12/07 07:24:48;;;;;;;15.32;9.98;;;-0.20;99.90;;;;;;4924041;29;20184;-84
2023/12/07 07:27:17;;;;;;;12.57;11.55;;;-0.20;99.90;;;;;;4937816;29;20217;-86
2023/12/07 07:29:44;;;;;;;10.43;9.38;;;0.00;99.90;;;;;;4925560;29;20196;-83
2023/12/07 07:32:11;;;;;;;22.08;20.05;;;-0.10;99.90;;;;;;4925558;29;20256;-84
2023/12/07 07:34:39;;;;;;;13.57;11.95;;;-0.20;99.90;;;;;;4955414;29;20244;-84
2023/12/07 07:37:07;;;;;;;8.48;7.75;;;-0.10;99.90;;;;;;4920294;29;20200;-84
2023/12/07 07:39:34;;;;;;;10.68;9.88;;;-0.20;99.90;;;;;;4912301;29;20230;-85
2023/12/07 07:42:02;;;;;;;21.48;15.77;;;-0.10;99.90;;;;;;4926416;29;20205;-82
2023/12/07 07:44:29;;;;;;;31.95;14.32;;;-0.10;99.90;;;;;;4922655;28;20286;-83
2023/12/07 07:46:56;;;;;;;11.82;10.52;;;-0.10;99.90;;;;;;4919625;29;20207;-82
2023/12/07 07:49:24;;;;;;;18.58;11.88;;;-0.10;99.90;;;;;;4923214;29;20209;-81
2023/12/07 07:51:51;;;;;;;10.50;6.93;;;-0.20;99.90;;;;;;4923131;29;20213;-82
2023/12/07 07:54:18;;;;;;;5.60;4.90;;;-0.20;99.90;;;;;;4924709;29;20603;-82
2023/12/07 07:56:45;;;;;;;26.58;12.40;;;-0.20;99.90;;;;;;4918002;29;20217;-82
2023/12/07 07:59:13;;;;;;;17.45;9.05;;;-0.20;99.90;;;;;;4927715;29;20212;-83
2023/12/07 08:01:40;;;;;;;12.63;11.52;;;-0.20;99.90;;;;;;4908545;29;20273;-83
2023/12/07 08:04:07;;;;;;;13.40;11.40;;;-0.20;99.90;;;;;;4922864;29;20271;-83
2023/12/07 08:06:34;;;;;;;18.67;9.25;;;-0.10;99.90;;;;;;4922163;29;20206;-82
2023/12/07 08:09:03;;;;;;;11.43;10.48;;;-0.10;99.90;;;;;;4921682;29;20228;-82
2023/12/07 08:11:32;;;;;;;13.90;12.77;;;-0.10;99.90;;;;;;4925196;29;20560;-82
2023/12/07 08:13:59;;;;;;;15.38;13.90;;;-0.10;99.90;;;;;;4919505;29;20300;-84
2023/12/07 08:16:27;;;;;;;8.43;7.90;;;-0.10;99.90;;;;;;4925024;29;20236;-83
2023/12/07 08:18:54;;;;;;;19.98;13.02;;;-0.10;99.90;;;;;;4918411;29;20244;-83
2023/12/07 08:21:23;;;;;;;8.07;7.47;;;-0.10;99.90;;;;;;4920155;29;20524;-83
2023/12/07 08:23:56;;;;;;;28.58;16.63;;;-0.10;99.90;;;;;;4913539;29;20249;-82
2023/12/07 08:26:23;;;;;;;8.10;7.45;;;0.10;99.90;;;;;;4922426;29;20557;-81
2023/12/07 08:28:53;;;;;;;18.80;16.80;;;-0.10;99.90;;;;;;4928286;29;20256;-84
2023/12/07 08:31:23;;;;;;;9.38;8.88;;;-0.10;99.90;;;;;;4916909;29;20210;-84
2023/12/07 08:33:51;;;;;;;11.55;7.15;;;-0.10;99.90;;;;;;4924587;29;20233;-84
2023/12/07 08:36:18;;;;;;;11.45;10.57;;;0.00;99.90;;;;;;4929054;29;20260;-84
2023/12/07 08:38:46;;;;;;;8.05;7.43;;;0.00;99.90;;;;;;4920916;29;20208;-83
2023/12/07 08:41:13;;;;;;;17.02;15.43;;;0.00;99.90;;;;;;4915468;29;20240;-83
2023/12/07 08:43:41;;;;;;;7.93;7.25;;;0.00;99.90;;;;;;4913616;29;20221;-84
2023/12/07 08:46:08;;;;;;;12.65;11.63;;;0.00;99.90;;;;;;4922144;29;20400;-86
2023/12/07 08:48:38;;;;;;;15.80;12.73;;;0.00;99.90;;;;;;4928238;29;20281;-83
2023/12/07 08:51:09;;;;;;;13.45;12.00;;;0.00;99.90;;;;;;4921906;29;20193;-84
2023/12/07 08:53:38;;;;;;;16.10;12.90;;;0.10;99.90;;;;;;4918764;29;20201;-83
2023/12/07 08:56:05;;;;;;;11.05;9.75;;;0.10;99.90;;;;;;4939851;29;20231;-84
2023/12/07 08:58:33;;;;;;;13.13;12.00;;;0.10;99.90;;;;;;4928178;29;20213;-82
2023/12/07 09:01:00;;;;;;;11.40;10.32;;;0.10;99.90;;;;;;4928728;29;20205;-82
2023/12/07 09:03:31;;;;;;;12.70;11.63;;;0.10;99.90;;;;;;4921386;29;20241;-83
2023/12/07 09:06:00;;;;;;;6.68;6.07;;;0.20;99.90;;;;;;4940723;29;20216;-82
2023/12/07 09:08:28;;;;;;;17.23;12.82;;;0.20;99.90;;;;;;4940455;29;20188;-85
2023/12/07 09:10:56;;;;;;;12.60;11.32;;;0.10;99.90;;;;;;4933228;29;20232;-84
2023/12/07 09:13:23;;;;;;;8.02;7.38;;;0.10;99.90;;;;;;4938217;29;20224;-85
2023/12/07 09:15:50;;;;;;;12.10;10.93;;;0.20;99.90;;;;;;4929332;29;20250;-84
2023/12/07 09:18:17;;;;;;;9.25;8.48;;;0.20;99.90;;;;;;4932739;29;20221;-82
2023/12/07 09:20:47;;;;;;;10.45;9.40;;;0.20;99.90;;;;;;4935145;29;20201;-83
2023/12/07 09:23:15;;;;;;;17.17;12.20;;;0.20;99.90;;;;;;4934917;29;20204;-83
2023/12/07 09:25:42;;;;;;;17.75;10.52;;;0.10;99.90;;;;;;4923594;29;20200;-82
2023/12/07 09:28:11;;;;;;;10.77;9.93;;;0.10;99.90;;;;;;4927811;29;20213;-83
2023/12/07 09:30:38;;;;;;;12.23;10.52;;;0.20;99.90;;;;;;4909583;29;20214;-82
2023/12/07 09:33:05;;;;;;;8.18;6.13;;;0.20;99.90;;;;;;4922347;29;20208;-84
2023/12/07 09:35:34;;;;;;;7.03;6.40;;;0.10;99.90;;;;;;4914343;29;20228;-82
2023/12/07 09:38:01;;;;;;;16.83;5.95;;;0.20;99.90;;;;;;4920944;29;20249;-85
2023/12/07 09:40:30;;;;;;;10.98;9.20;;;0.20;99.90;;;;;;4921863;29;20205;-83
2023/12/07 09:42:58;;;;;;;11.45;10.65;;;0.20;99.90;;;;;;4922008;29;20202;-84
2023/12/07 09:45:25;;;;;;;12.40;9.85;;;0.30;99.90;;;;;;4921946;29;20225;-84
2023/12/07 09:47:55;;;;;;;42.80;14.93;;;0.30;99.90;;;;;;4912977;29;20201;-82
2023/12/07 09:50:24;;;;;;;8.57;7.82;;;0.30;99.90;;;;;;4924992;29;20273;-85
2023/12/07 09:52:54;;;;;;;9.82;8.98;;;0.30;99.90;;;;;;4935162;29;20276;-83
2023/12/07 09:55:33;;;;;;;10.73;9.85;;;0.30;99.90;;;;;;4916296;29;20233;-84
2023/12/07 09:58:04;;;;;;;19.42;15.85;;;0.30;99.90;;;;;;4920343;29;20201;-84
2023/12/07 10:00:33;;;;;;;13.77;10.75;;;0.30;99.90;;;;;;4921958;29;20205;-84
2023/12/07 10:03:01;;;;;;;9.07;8.38;;;0.30;99.90;;;;;;4923312;29;20254;-84
2023/12/07 10:05:28;;;;;;;49.33;19.58;;;0.30;99.90;;;;;;4915728;29;20225;-84
2023/12/07 10:07:55;;;;;;;10.60;9.80;;;0.30;99.90;;;;;;4925236;29;20276;-84
2023/12/07 10:10:22;;;;;;;12.27;11.48;;;0.30;99.90;;;;;;4927426;29;20560;-84
2023/12/07 10:12:59;;;;;;;9.45;8.75;;;0.40;99.90;;;;;;4925197;29;20233;-83
2023/12/07 10:15:28;;;;;;;17.80;16.13;;;0.30;99.90;;;;;;4930634;29;20537;-83
2023/12/07 10:17:59;;;;;;;11.88;10.85;;;0.40;99.90;;;;;;4920450;29;20208;-87
2023/12/07 10:20:28;;;;;;;8.77;7.95;;;0.40;99.90;;;;;;4915951;29;20242;-85
2023/12/07 10:23:07;;;;;;;8.68;8.07;;;0.40;99.90;;;;;;4919806;29;20213;-85
2023/12/07 10:25:40;;;;;;;10.43;9.48;;;0.40;99.90;;;;;;4915472;29;20216;-84
2023/12/07 10:28:11;;;;;;;12.93;11.75;;;0.40;99.90;;;;;;4920357;29;20228;-85
2023/12/07 10:30:43;;;;;;;15.40;13.48;;;0.40;99.90;;;;;;4915440;29;20208;-83
2023/12/07 10:33:12;;;;;;;34.45;7.07;;;0.40;99.90;;;;;;4921732;29;20213;-86
2023/12/07 10:35:42;;;;;;;9.48;8.95;;;0.40;99.90;;;;;;4918321;29;20236;-83
2023/12/07 10:38:10;;;;;;;9.48;8.85;;;0.40;99.90;;;;;;4918845;29;20229;-82
2023/12/07 10:40:37;;;;;;;11.45;10.50;;;0.40;99.90;;;;;;4930598;29;20252;-83
2023/12/07 10:43:06;;;;;;;11.75;10.57;;;0.40;99.90;;;;;;4926333;29;20391;-84
2023/12/07 10:45:34;;;;;;;15.85;14.65;;;0.40;99.90;;;;;;4918941;29;20280;-82
2023/12/07 10:48:09;;;;;;;11.25;10.23;;;0.50;99.90;;;;;;4910231;29;20213;-84
2023/12/07 10:50:43;;;;;;;8.45;7.65;;;0.70;99.90;;;;;;4923707;29;20216;-82
2023/12/07 10:53:29;;;;;;;19.67;11.05;;;0.50;99.90;;;;;;4911506;29;20197;-82
2023/12/07 10:56:00;;;;;;;7.35;6.80;;;0.50;99.90;;;;;;4924315;29;20232;-84
2023/12/07 10:58:28;;;;;;;10.15;9.50;;;0.60;99.90;;;;;;4910503;29;20205;-83
2023/12/07 11:00:57;;;;;;;12.77;11.93;;;0.60;99.90;;;;;;4913161;29;20403;-81
2023/12/07 11:03:25;;;;;;;11.80;10.25;;;0.60;99.90;;;;;;4913036;29;20205;-82
2023/12/07 11:05:53;;;;;;;9.85;8.88;;;0.60;99.90;;;;;;4914292;29;20276;-81
2023/12/07 11:08:46;;;;;;;12.48;11.45;;;0.60;99.90;;;;;;4924755;29;20213;-84
2023/12/07 11:11:36;;;;;;;7.68;6.95;;;0.60;99.90;;;;;;4906700;29;20209;-82
2023/12/07 11:14:05;;;;;;;14.13;7.63;;;0.60;99.90;;;;;;4907249;29;20237;-83
2023/12/07 11:16:36;;;;;;;12.93;11.85;;;0.60;99.90;;;;;;4921420;29;20401;-80
2023/12/07 11:19:07;;;;;;;18.20;12.77;;;0.60;99.90;;;;;;4914625;29;20234;-83
2023/12/07 11:21:38;;;;;;;15.60;8.93;;;0.60;99.90;;;;;;4916318;29;20255;-85
2023/12/07 11:24:06;;;;;;;16.17;8.77;;;0.60;99.90;;;;;;4918915;29;20439;-84
2023/12/07 11:26:33;;;;;;;11.73;10.35;;;0.60;99.90;;;;;;4914098;29;20269;-83
2023/12/07 11:29:00;;;;;;;17.00;9.55;;;0.60;99.90;;;;;;4922856;29;20209;-82
2023/12/07 11:31:27;;;;;;;9.60;8.68;;;0.60;99.90;;;;;;4919920;29;20202;-84
2023/12/07 11:33:54;;;;;;;12.60;10.75;;;0.70;99.90;;;;;;4915343;29;20213;-83
2023/12/07 11:36:24;;;;;;;5.82;5.53;;;0.70;99.90;;;;;;4926523;29;20277;-86
2023/12/07 11:39:11;;;;;;;7.47;7.00;;;0.70;99.90;;;;;;4922289;29;20265;-86
2023/12/07 11:41:53;;;;;;;13.00;7.05;;;0.70;99.90;;;;;;4916646;29;20205;-85
2023/12/07 11:44:23;;;;;;;9.80;9.15;;;0.70;99.90;;;;;;4918738;29;20260;-83
2023/12/07 11:46:51;;;;;;;19.85;9.35;;;0.80;99.90;;;;;;4932282;29;20356;-83
2023/12/07 11:49:18;;;;;;;10.18;9.38;;;0.80;99.90;;;;;;4931340;29;20201;-86
2023/12/07 11:51:59;;;;;;;12.55;9.68;;;0.80;99.90;;;;;;4929989;29;20208;-85
2023/12/07 11:54:26;;;;;;;6.72;5.95;;;0.80;99.90;;;;;;4938853;28;20220;-80
2023/12/07 11:56:54;;;;;;;10.52;9.32;;;0.80;99.90;;;;;;4936451;29;20193;-82
2023/12/07 11:59:22;;;;;;;5.63;5.32;;;0.80;99.90;;;;;;4937099;28;20417;-82
2023/12/07 12:02:02;;;;;;;3.70;3.53;;;0.80;99.90;;;;;;4921961;29;20213;-80
2023/12/07 12:04:30;;;;;;;7.53;7.07;;;0.80;99.90;;;;;;4920139;29;20212;-83
2023/12/07 12:06:57;;;;;;;25.48;8.70;;;0.90;99.90;;;;;;4925861;29;20204;-84
2023/12/07 12:09:28;;;;;;;11.77;7.38;;;0.90;99.90;;;;;;4918597;29;20220;-80
2023/12/07 12:12:02;;;;;;;5.60;5.28;;;0.80;99.90;;;;;;4926751;29;20209;-80
2023/12/07 12:14:30;;;;;;;30.52;6.10;;;0.90;99.90;;;;;;4924213;29;20201;-79
2023/12/07 12:16:57;;;;;;;6.85;6.25;;;0.80;99.90;;;;;;4920834;29;20431;-80
2023/12/07 12:19:24;;;;;;;11.55;6.30;;;0.90;99.90;;;;;;4932200;29;20245;-81
2023/12/07 12:22:04;;;;;;;4.43;4.07;;;0.90;99.90;;;;;;4921912;29;20381;-79
2023/12/07 12:24:39;;;;;;;5.53;5.22;;;0.90;99.90;;;;;;4932641;29;20402;-82
2023/12/07 12:27:07;;;;;;;9.85;9.07;;;1.00;99.90;;;;;;4926347;29;20236;-80
2023/12/07 12:29:35;;;;;;;7.55;5.03;;;1.00;99.90;;;;;;4928138;29;20205;-81
2023/12/07 12:32:03;;;;;;;7.35;5.95;;;1.00;99.90;;;;;;4924011;29;20221;-81
2023/12/07 12:34:33;;;;;;;8.32;7.78;;;1.00;99.90;;;;;;4912515;29;20205;-80
2023/12/07 12:37:05;;;;;;;5.75;5.43;;;1.00;99.90;;;;;;4918922;29;20261;-81
2023/12/07 12:39:34;;;;;;;10.43;9.60;;;1.00;99.90;;;;;;4922480;29;20232;-82
2023/12/07 12:42:03;;;;;;;10.50;8.05;;;1.10;99.90;;;;;;4927892;29;20232;-80
2023/12/07 12:44:31;;;;;;;4.90;4.65;;;1.10;99.90;;;;;;4922325;29;20245;-80